sensor_id;sensor_type;location;lat;lon;timestamp;P1;durP1;ratioP1;P2;durP2;ratioP2
15132;SDS011;7667;51.232;17.110;2023-12-20T00:01:22;8.53;;;7.03;;
15132;SDS011;7667;51.232;17.110;2023-12-20T00:03:51;9.43;;;7.50;;
15132;SDS011;7667;51.232;17.110;2023-12-20T00:06:19;9.93;;;7.20;;
15132;SDS011;7667;51.232;17.110;2023-12-20T00:08:47;8.30;;;6.53;;
15132;SDS011;7667;51.232;17.110;2023-12-20T00:11:15;9.23;;;7.50;;
15132;SDS011;7667;51.232;17.110;2023-12-20T00:13:44;9.43;;;8.10;;
15132;SDS011;7667;51.232;17.110;2023-12-20T00:16:16;9.77;;;7.90;;
15132;SDS011;7667;51.232;17.110;2023-12-20T00:18:44;9.43;;;7.77;;
15132;SDS011;7667;51.232;17.110;2023-12-20T00:21:13;10.13;;;7.60;;
15132;SDS011;7667;51.232;17.110;2023-12-20T00:23:41;8.93;;;7.30;;
15132;SDS011;7667;51.232;17.110;2023-12-20T00:26:09;8.63;;;7.30;;
15132;SDS011;7667;51.232;17.110;2023-12-20T00:28:37;10.80;;;7.83;;
15132;SDS011;7667;51.232;17.110;2023-12-20T00:31:05;8.70;;;7.30;;
15132;SDS011;7667;51.232;17.110;2023-12-20T00:33:33;10.83;;;8.03;;
15132;SDS011;7667;51.232;17.110;2023-12-20T00:36:01;9.63;;;7.77;;
15132;SDS011;7667;51.232;17.110;2023-12-20T00:38:30;9.43;;;8.17;;
15132;SDS011;7667;51.232;17.110;2023-12-20T00:40:58;8.90;;;7.67;;
15132;SDS011;7667;51.232;17.110;2023-12-20T00:43:26;8.57;;;7.13;;
15132;SDS011;7667;51.232;17.110;2023-12-20T00:45:54;9.40;;;7.33;;
15132;SDS011;7667;51.232;17.110;2023-12-20T00:48:22;9.43;;;7.90;;
15132;SDS011;7667;51.232;17.110;2023-12-20T00:50:51;10.60;;;8.60;;
15132;SDS011;7667;51.232;17.110;2023-12-20T00:53:19;9.27;;;7.60;;
15132;SDS011;7667;51.232;17.110;2023-12-20T00:55:47;8.57;;;6.90;;
15132;SDS011;7667;51.232;17.110;2023-12-20T00:58:16;9.37;;;7.90;;
15132;SDS011;7667;51.232;17.110;2023-12-20T01:00:45;9.87;;;8.17;;
15132;SDS011;7667;51.232;17.110;2023-12-20T01:03:13;8.53;;;7.57;;
15132;SDS011;7667;51.232;17.110;2023-12-20T01:05:42;9.60;;;7.87;;
15132;SDS011;7667;51.232;17.110;2023-12-20T01:08:10;7.80;;;7.00;;
15132;SDS011;7667;51.232;17.110;2023-12-20T01:10:39;8.30;;;6.60;;
15132;SDS011;7667;51.232;17.110;2023-12-20T01:13:07;6.80;;;6.03;;
15132;SDS011;7667;51.232;17.110;2023-12-20T01:15:36;6.37;;;5.60;;
15132;SDS011;7667;51.232;17.110;2023-12-20T01:18:04;7.73;;;6.53;;
15132;SDS011;7667;51.232;17.110;2023-12-20T01:20:32;7.33;;;5.40;;
15132;SDS011;7667;51.232;17.110;2023-12-20T01:23:02;6.00;;;5.37;;
15132;SDS011;7667;51.232;17.110;2023-12-20T01:25:30;5.77;;;4.93;;
15132;SDS011;7667;51.232;17.110;2023-12-20T01:27:58;5.80;;;5.13;;
15132;SDS011;7667;51.232;17.110;2023-12-20T01:30:26;5.30;;;4.80;;
15132;SDS011;7667;51.232;17.110;2023-12-20T01:32:55;5.63;;;4.83;;
15132;SDS011;7667;51.232;17.110;2023-12-20T01:35:23;5.87;;;4.97;;
15132;SDS011;7667;51.232;17.110;2023-12-20T01:37:51;4.87;;;4.37;;
15132;SDS011;7667;51.232;17.110;2023-12-20T01:40:19;4.93;;;4.07;;
15132;SDS011;7667;51.232;17.110;2023-12-20T01:42:47;5.20;;;4.57;;
15132;SDS011;7667;51.232;17.110;2023-12-20T01:45:24;5.20;;;4.60;;
15132;SDS011;7667;51.232;17.110;2023-12-20T01:47:53;4.73;;;3.90;;
15132;SDS011;7667;51.232;17.110;2023-12-20T01:50:24;4.30;;;3.90;;
15132;SDS011;7667;51.232;17.110;2023-12-20T01:52:52;5.47;;;4.17;;
15132;SDS011;7667;51.232;17.110;2023-12-20T01:55:24;4.43;;;3.87;;
15132;SDS011;7667;51.232;17.110;2023-12-20T01:57:55;4.90;;;4.40;;
15132;SDS011;7667;51.232;17.110;2023-12-20T02:00:24;4.43;;;4.03;;
15132;SDS011;7667;51.232;17.110;2023-12-20T02:02:54;5.00;;;4.07;;
15132;SDS011;7667;51.232;17.110;2023-12-20T02:05:25;4.60;;;4.20;;
15132;SDS011;7667;51.232;17.110;2023-12-20T02:07:54;4.87;;;4.37;;
15132;SDS011;7667;51.232;17.110;2023-12-20T02:10:23;4.27;;;3.87;;
15132;SDS011;7667;51.232;17.110;2023-12-20T02:12:51;5.00;;;4.40;;
15132;SDS011;7667;51.232;17.110;2023-12-20T02:15:19;5.40;;;4.90;;
15132;SDS011;7667;51.232;17.110;2023-12-20T02:17:47;5.40;;;4.90;;
15132;SDS011;7667;51.232;17.110;2023-12-20T02:20:16;5.00;;;4.50;;
15132;SDS011;7667;51.232;17.110;2023-12-20T02:22:44;5.33;;;4.83;;
15132;SDS011;7667;51.232;17.110;2023-12-20T02:25:12;5.80;;;4.80;;
15132;SDS011;7667;51.232;17.110;2023-12-20T02:27:40;4.83;;;4.33;;
15132;SDS011;7667;51.232;17.110;2023-12-20T02:30:09;5.57;;;4.80;;
15132;SDS011;7667;51.232;17.110;2023-12-20T02:32:38;6.40;;;5.33;;
15132;SDS011;7667;51.232;17.110;2023-12-20T02:35:06;5.07;;;4.23;;
15132;SDS011;7667;51.232;17.110;2023-12-20T02:37:34;4.67;;;4.27;;
15132;SDS011;7667;51.232;17.110;2023-12-20T02:40:02;4.53;;;3.63;;
15132;SDS011;7667;51.232;17.110;2023-12-20T02:42:31;4.10;;;3.70;;
15132;SDS011;7667;51.232;17.110;2023-12-20T02:44:59;4.67;;;3.53;;
15132;SDS011;7667;51.232;17.110;2023-12-20T02:47:27;3.60;;;3.27;;
15132;SDS011;7667;51.232;17.110;2023-12-20T02:49:56;3.30;;;2.93;;
15132;SDS011;7667;51.232;17.110;2023-12-20T02:52:25;2.63;;;2.40;;
15132;SDS011;7667;51.232;17.110;2023-12-20T02:54:54;2.93;;;2.70;;
15132;SDS011;7667;51.232;17.110;2023-12-20T02:57:22;2.50;;;2.30;;
15132;SDS011;7667;51.232;17.110;2023-12-20T02:59:50;2.40;;;2.10;;
15132;SDS011;7667;51.232;17.110;2023-12-20T03:02:18;2.30;;;2.07;;
15132;SDS011;7667;51.232;17.110;2023-12-20T03:04:46;2.00;;;1.80;;
15132;SDS011;7667;51.232;17.110;2023-12-20T03:07:14;2.70;;;1.67;;
15132;SDS011;7667;51.232;17.110;2023-12-20T03:09:43;1.67;;;1.47;;
15132;SDS011;7667;51.232;17.110;2023-12-20T03:12:30;1.50;;;1.40;;
15132;SDS011;7667;51.232;17.110;2023-12-20T03:14:59;1.57;;;1.47;;
15132;SDS011;7667;51.232;17.110;2023-12-20T03:17:27;1.60;;;1.50;;
15132;SDS011;7667;51.232;17.110;2023-12-20T03:19:55;2.20;;;1.70;;
15132;SDS011;7667;51.232;17.110;2023-12-20T03:22:23;2.10;;;1.70;;
15132;SDS011;7667;51.232;17.110;2023-12-20T03:24:51;2.17;;;1.97;;
15132;SDS011;7667;51.232;17.110;2023-12-20T03:27:19;2.50;;;2.00;;
15132;SDS011;7667;51.232;17.110;2023-12-20T03:29:47;2.63;;;2.00;;
15132;SDS011;7667;51.232;17.110;2023-12-20T03:32:15;2.83;;;2.20;;
15132;SDS011;7667;51.232;17.110;2023-12-20T03:34:43;2.20;;;2.00;;
15132;SDS011;7667;51.232;17.110;2023-12-20T03:37:11;2.30;;;2.10;;
15132;SDS011;7667;51.232;17.110;2023-12-20T03:39:40;2.10;;;1.90;;
15132;SDS011;7667;51.232;17.110;2023-12-20T03:42:08;2.57;;;2.20;;
15132;SDS011;7667;51.232;17.110;2023-12-20T03:44:38;2.33;;;2.00;;
15132;SDS011;7667;51.232;17.110;2023-12-20T03:47:07;2.17;;;1.97;;
15132;SDS011;7667;51.232;17.110;2023-12-20T03:49:35;2.17;;;1.97;;
15132;SDS011;7667;51.232;17.110;2023-12-20T03:52:05;2.10;;;1.90;;
15132;SDS011;7667;51.232;17.110;2023-12-20T03:54:37;2.20;;;1.70;;
15132;SDS011;7667;51.232;17.110;2023-12-20T03:57:08;2.23;;;1.70;;
15132;SDS011;7667;51.232;17.110;2023-12-20T03:59:37;1.90;;;1.80;;
15132;SDS011;7667;51.232;17.110;2023-12-20T04:02:05;1.80;;;1.70;;
15132;SDS011;7667;51.232;17.110;2023-12-20T04:04:33;1.60;;;1.50;;
15132;SDS011;7667;51.232;17.110;2023-12-20T04:07:01;1.87;;;1.60;;
15132;SDS011;7667;51.232;17.110;2023-12-20T04:09:30;1.80;;;1.63;;
15132;SDS011;7667;51.232;17.110;2023-12-20T04:11:58;2.10;;;1.57;;
15132;SDS011;7667;51.232;17.110;2023-12-20T04:14:26;2.53;;;1.70;;
15132;SDS011;7667;51.232;17.110;2023-12-20T04:16:54;1.90;;;1.80;;
15132;SDS011;7667;51.232;17.110;2023-12-20T04:19:22;1.70;;;1.60;;
15132;SDS011;7667;51.232;17.110;2023-12-20T04:21:50;1.90;;;1.80;;
15132;SDS011;7667;51.232;17.110;2023-12-20T04:24:18;1.80;;;1.70;;
15132;SDS011;7667;51.232;17.110;2023-12-20T04:26:47;2.10;;;1.90;;
15132;SDS011;7667;51.232;17.110;2023-12-20T04:29:15;1.80;;;1.70;;
15132;SDS011;7667;51.232;17.110;2023-12-20T04:31:43;2.00;;;1.90;;
15132;SDS011;7667;51.232;17.110;2023-12-20T04:34:11;2.03;;;1.90;;
15132;SDS011;7667;51.232;17.110;2023-12-20T04:36:40;2.07;;;1.80;;
15132;SDS011;7667;51.232;17.110;2023-12-20T04:39:08;2.00;;;1.80;;
15132;SDS011;7667;51.232;17.110;2023-12-20T04:41:36;1.90;;;1.80;;
15132;SDS011;7667;51.232;17.110;2023-12-20T04:44:05;2.53;;;1.90;;
15132;SDS011;7667;51.232;17.110;2023-12-20T04:46:34;2.43;;;2.00;;
15132;SDS011;7667;51.232;17.110;2023-12-20T04:49:03;2.23;;;2.03;;
15132;SDS011;7667;51.232;17.110;2023-12-20T04:51:34;2.03;;;1.83;;
15132;SDS011;7667;51.232;17.110;2023-12-20T04:54:03;2.00;;;1.80;;
15132;SDS011;7667;51.232;17.110;2023-12-20T04:56:31;1.70;;;1.60;;
15132;SDS011;7667;51.232;17.110;2023-12-20T04:58:59;1.90;;;1.70;;
15132;SDS011;7667;51.232;17.110;2023-12-20T05:01:27;2.13;;;1.80;;
15132;SDS011;7667;51.232;17.110;2023-12-20T05:03:55;1.87;;;1.70;;
15132;SDS011;7667;51.232;17.110;2023-12-20T05:06:23;1.87;;;1.77;;
15132;SDS011;7667;51.232;17.110;2023-12-20T05:08:52;2.30;;;2.10;;
15132;SDS011;7667;51.232;17.110;2023-12-20T05:11:20;2.13;;;1.93;;
15132;SDS011;7667;51.232;17.110;2023-12-20T05:13:48;2.10;;;1.90;;
15132;SDS011;7667;51.232;17.110;2023-12-20T05:16:16;2.33;;;1.90;;
15132;SDS011;7667;51.232;17.110;2023-12-20T05:18:47;1.80;;;1.70;;
15132;SDS011;7667;51.232;17.110;2023-12-20T05:21:19;2.20;;;1.80;;
15132;SDS011;7667;51.232;17.110;2023-12-20T05:23:47;1.77;;;1.60;;
15132;SDS011;7667;51.232;17.110;2023-12-20T05:26:15;2.00;;;1.70;;
15132;SDS011;7667;51.232;17.110;2023-12-20T05:28:44;2.23;;;2.03;;
15132;SDS011;7667;51.232;17.110;2023-12-20T05:31:12;2.00;;;1.77;;
15132;SDS011;7667;51.232;17.110;2023-12-20T05:33:40;2.40;;;2.20;;
15132;SDS011;7667;51.232;17.110;2023-12-20T05:36:08;2.23;;;2.03;;
15132;SDS011;7667;51.232;17.110;2023-12-20T05:38:39;2.37;;;2.10;;
15132;SDS011;7667;51.232;17.110;2023-12-20T05:41:07;2.10;;;1.90;;
15132;SDS011;7667;51.232;17.110;2023-12-20T05:43:35;2.57;;;2.10;;
15132;SDS011;7667;51.232;17.110;2023-12-20T05:46:03;2.60;;;2.40;;
15132;SDS011;7667;51.232;17.110;2023-12-20T05:48:32;2.30;;;2.10;;
15132;SDS011;7667;51.232;17.110;2023-12-20T05:51:00;3.20;;;2.27;;
15132;SDS011;7667;51.232;17.110;2023-12-20T05:53:28;2.40;;;2.20;;
15132;SDS011;7667;51.232;17.110;2023-12-20T05:55:56;2.40;;;2.20;;
15132;SDS011;7667;51.232;17.110;2023-12-20T05:58:24;2.40;;;2.20;;
15132;SDS011;7667;51.232;17.110;2023-12-20T06:00:52;2.70;;;2.20;;
15132;SDS011;7667;51.232;17.110;2023-12-20T06:03:20;2.63;;;2.43;;
15132;SDS011;7667;51.232;17.110;2023-12-20T06:05:48;2.63;;;2.30;;
15132;SDS011;7667;51.232;17.110;2023-12-20T06:08:19;2.50;;;2.30;;
15132;SDS011;7667;51.232;17.110;2023-12-20T06:10:48;3.13;;;2.83;;
15132;SDS011;7667;51.232;17.110;2023-12-20T06:13:16;3.00;;;2.53;;
15132;SDS011;7667;51.232;17.110;2023-12-20T06:15:44;3.13;;;2.60;;
15132;SDS011;7667;51.232;17.110;2023-12-20T06:18:12;2.50;;;2.30;;
15132;SDS011;7667;51.232;17.110;2023-12-20T06:20:40;2.87;;;2.60;;
15132;SDS011;7667;51.232;17.110;2023-12-20T06:23:08;2.67;;;2.47;;
15132;SDS011;7667;51.232;17.110;2023-12-20T06:25:37;3.10;;;2.80;;
15132;SDS011;7667;51.232;17.110;2023-12-20T06:28:05;2.53;;;2.33;;
15132;SDS011;7667;51.232;17.110;2023-12-20T06:30:33;2.77;;;2.40;;
15132;SDS011;7667;51.232;17.110;2023-12-20T06:33:01;2.40;;;2.20;;
15132;SDS011;7667;51.232;17.110;2023-12-20T06:35:29;2.20;;;2.00;;
15132;SDS011;7667;51.232;17.110;2023-12-20T06:38:01;2.63;;;2.43;;
15132;SDS011;7667;51.232;17.110;2023-12-20T06:40:30;3.07;;;2.13;;
15132;SDS011;7667;51.232;17.110;2023-12-20T06:42:58;3.27;;;2.43;;
15132;SDS011;7667;51.232;17.110;2023-12-20T06:45:38;2.43;;;2.17;;
15132;SDS011;7667;51.232;17.110;2023-12-20T06:48:06;2.63;;;2.10;;
15132;SDS011;7667;51.232;17.110;2023-12-20T06:50:34;2.40;;;2.20;;
15132;SDS011;7667;51.232;17.110;2023-12-20T06:53:06;2.63;;;2.23;;
15132;SDS011;7667;51.232;17.110;2023-12-20T06:55:35;3.70;;;2.30;;
15132;SDS011;7667;51.232;17.110;2023-12-20T06:58:04;2.63;;;2.10;;
15132;SDS011;7667;51.232;17.110;2023-12-20T07:00:33;2.00;;;1.90;;
15132;SDS011;7667;51.232;17.110;2023-12-20T07:03:01;2.13;;;1.93;;
15132;SDS011;7667;51.232;17.110;2023-12-20T07:05:30;2.33;;;2.03;;
15132;SDS011;7667;51.232;17.110;2023-12-20T07:07:58;1.90;;;1.70;;
15132;SDS011;7667;51.232;17.110;2023-12-20T07:10:26;2.10;;;1.90;;
15132;SDS011;7667;51.232;17.110;2023-12-20T07:12:54;3.77;;;1.90;;
15132;SDS011;7667;51.232;17.110;2023-12-20T07:15:22;1.93;;;1.80;;
15132;SDS011;7667;51.232;17.110;2023-12-20T07:17:51;1.60;;;1.50;;
15132;SDS011;7667;51.232;17.110;2023-12-20T07:20:19;1.70;;;1.60;;
15132;SDS011;7667;51.232;17.110;2023-12-20T07:22:47;1.30;;;1.20;;
15132;SDS011;7667;51.232;17.110;2023-12-20T07:25:15;1.77;;;1.67;;
15132;SDS011;7667;51.232;17.110;2023-12-20T07:27:43;2.00;;;1.50;;
15132;SDS011;7667;51.232;17.110;2023-12-20T07:30:12;1.50;;;1.40;;
15132;SDS011;7667;51.232;17.110;2023-12-20T07:32:40;2.17;;;1.80;;
15132;SDS011;7667;51.232;17.110;2023-12-20T07:35:08;2.10;;;1.30;;
15132;SDS011;7667;51.232;17.110;2023-12-20T07:37:36;2.63;;;1.40;;
15132;SDS011;7667;51.232;17.110;2023-12-20T07:40:04;1.50;;;1.40;;
15132;SDS011;7667;51.232;17.110;2023-12-20T07:42:33;1.73;;;1.57;;
15132;SDS011;7667;51.232;17.110;2023-12-20T07:45:01;10.23;;;6.20;;
15132;SDS011;7667;51.232;17.110;2023-12-20T07:47:30;3.43;;;2.67;;
15132;SDS011;7667;51.232;17.110;2023-12-20T07:49:59;4.27;;;3.00;;
15132;SDS011;7667;51.232;17.110;2023-12-20T07:52:27;2.23;;;1.83;;
15132;SDS011;7667;51.232;17.110;2023-12-20T07:54:56;2.87;;;2.50;;
15132;SDS011;7667;51.232;17.110;2023-12-20T07:57:24;2.20;;;2.00;;
15132;SDS011;7667;51.232;17.110;2023-12-20T07:59:52;3.33;;;2.63;;
15132;SDS011;7667;51.232;17.110;2023-12-20T08:02:20;2.03;;;1.60;;
15132;SDS011;7667;51.232;17.110;2023-12-20T08:04:48;1.40;;;1.17;;
15132;SDS011;7667;51.232;17.110;2023-12-20T08:07:16;1.70;;;1.33;;
15132;SDS011;7667;51.232;17.110;2023-12-20T08:09:44;1.57;;;1.10;;
15132;SDS011;7667;51.232;17.110;2023-12-20T08:12:12;1.23;;;1.10;;
15132;SDS011;7667;51.232;17.110;2023-12-20T08:14:40;1.40;;;1.30;;
15132;SDS011;7667;51.232;17.110;2023-12-20T08:17:08;2.17;;;1.70;;
15132;SDS011;7667;51.232;17.110;2023-12-20T08:19:36;1.43;;;1.30;;
15132;SDS011;7667;51.232;17.110;2023-12-20T08:22:04;1.30;;;1.20;;
15132;SDS011;7667;51.232;17.110;2023-12-20T08:24:32;2.53;;;1.10;;
15132;SDS011;7667;51.232;17.110;2023-12-20T08:27:00;2.10;;;1.60;;
15132;SDS011;7667;51.232;17.110;2023-12-20T08:29:28;2.70;;;1.83;;
15132;SDS011;7667;51.232;17.110;2023-12-20T08:31:56;1.40;;;1.30;;
15132;SDS011;7667;51.232;17.110;2023-12-20T08:34:24;1.30;;;1.20;;
15132;SDS011;7667;51.232;17.110;2023-12-20T08:36:52;1.47;;;1.20;;
15132;SDS011;7667;51.232;17.110;2023-12-20T08:39:20;3.10;;;1.23;;
15132;SDS011;7667;51.232;17.110;2023-12-20T08:41:48;7.70;;;4.90;;
15132;SDS011;7667;51.232;17.110;2023-12-20T08:44:16;1.60;;;1.43;;
15132;SDS011;7667;51.232;17.110;2023-12-20T08:46:44;4.20;;;3.30;;
15132;SDS011;7667;51.232;17.110;2023-12-20T08:49:12;2.77;;;2.20;;
15132;SDS011;7667;51.232;17.110;2023-12-20T08:51:41;2.07;;;1.80;;
15132;SDS011;7667;51.232;17.110;2023-12-20T08:54:09;1.70;;;1.47;;
15132;SDS011;7667;51.232;17.110;2023-12-20T08:56:37;1.70;;;1.57;;
15132;SDS011;7667;51.232;17.110;2023-12-20T08:59:05;3.30;;;2.70;;
15132;SDS011;7667;51.232;17.110;2023-12-20T09:01:33;1.87;;;1.60;;
15132;SDS011;7667;51.232;17.110;2023-12-20T09:04:01;2.33;;;2.03;;
15132;SDS011;7667;51.232;17.110;2023-12-20T09:06:29;2.53;;;1.93;;
15132;SDS011;7667;51.232;17.110;2023-12-20T09:08:57;2.73;;;2.00;;
15132;SDS011;7667;51.232;17.110;2023-12-20T09:11:25;3.00;;;2.70;;
15132;SDS011;7667;51.232;17.110;2023-12-20T09:13:53;2.93;;;2.00;;
15132;SDS011;7667;51.232;17.110;2023-12-20T09:16:21;3.17;;;2.30;;
15132;SDS011;7667;51.232;17.110;2023-12-20T09:18:49;4.80;;;3.17;;
15132;SDS011;7667;51.232;17.110;2023-12-20T09:21:18;6.50;;;4.57;;
15132;SDS011;7667;51.232;17.110;2023-12-20T09:23:46;4.20;;;2.77;;
15132;SDS011;7667;51.232;17.110;2023-12-20T09:26:14;6.30;;;3.50;;
15132;SDS011;7667;51.232;17.110;2023-12-20T09:28:43;12.43;;;6.73;;
15132;SDS011;7667;51.232;17.110;2023-12-20T09:31:11;3.87;;;2.87;;
15132;SDS011;7667;51.232;17.110;2023-12-20T09:33:39;2.13;;;1.83;;
15132;SDS011;7667;51.232;17.110;2023-12-20T09:36:07;2.53;;;2.10;;
15132;SDS011;7667;51.232;17.110;2023-12-20T09:38:36;4.67;;;4.07;;
15132;SDS011;7667;51.232;17.110;2023-12-20T09:41:04;2.00;;;1.73;;
15132;SDS011;7667;51.232;17.110;2023-12-20T09:43:32;2.37;;;2.10;;
15132;SDS011;7667;51.232;17.110;2023-12-20T09:46:05;3.40;;;2.20;;
15132;SDS011;7667;51.232;17.110;2023-12-20T09:48:37;3.60;;;2.10;;
15132;SDS011;7667;51.232;17.110;2023-12-20T09:51:05;2.73;;;2.23;;
15132;SDS011;7667;51.232;17.110;2023-12-20T09:53:33;4.80;;;3.27;;
15132;SDS011;7667;51.232;17.110;2023-12-20T09:56:02;3.40;;;2.57;;
15132;SDS011;7667;51.232;17.110;2023-12-20T09:58:30;3.03;;;2.40;;
15132;SDS011;7667;51.232;17.110;2023-12-20T10:00:58;3.23;;;2.50;;
15132;SDS011;7667;51.232;17.110;2023-12-20T10:03:26;2.97;;;2.27;;
15132;SDS011;7667;51.232;17.110;2023-12-20T10:05:55;2.73;;;2.27;;
15132;SDS011;7667;51.232;17.110;2023-12-20T10:08:27;2.40;;;2.10;;
15132;SDS011;7667;51.232;17.110;2023-12-20T10:10:56;2.57;;;2.20;;
15132;SDS011;7667;51.232;17.110;2023-12-20T10:13:29;2.30;;;2.10;;
15132;SDS011;7667;51.232;17.110;2023-12-20T10:15:57;2.10;;;1.80;;
15132;SDS011;7667;51.232;17.110;2023-12-20T10:18:26;2.10;;;1.90;;
15132;SDS011;7667;51.232;17.110;2023-12-20T10:21:05;2.30;;;1.60;;
15132;SDS011;7667;51.232;17.110;2023-12-20T10:23:37;2.23;;;1.80;;
15132;SDS011;7667;51.232;17.110;2023-12-20T10:26:06;1.70;;;1.40;;
15132;SDS011;7667;51.232;17.110;2023-12-20T10:28:35;2.87;;;1.43;;
15132;SDS011;7667;51.232;17.110;2023-12-20T10:31:04;1.47;;;1.23;;
15132;SDS011;7667;51.232;17.110;2023-12-20T10:33:32;1.93;;;1.30;;
15132;SDS011;7667;51.232;17.110;2023-12-20T10:36:01;1.80;;;1.20;;
15132;SDS011;7667;51.232;17.110;2023-12-20T10:38:30;1.33;;;1.10;;
15132;SDS011;7667;51.232;17.110;2023-12-20T10:40:58;2.90;;;1.47;;
15132;SDS011;7667;51.232;17.110;2023-12-20T10:43:27;1.27;;;1.10;;
15132;SDS011;7667;51.232;17.110;2023-12-20T10:45:57;2.27;;;1.40;;
15132;SDS011;7667;51.232;17.110;2023-12-20T10:48:26;1.97;;;1.27;;
15132;SDS011;7667;51.232;17.110;2023-12-20T10:50:57;2.27;;;1.30;;
15132;SDS011;7667;51.232;17.110;2023-12-20T10:53:25;1.50;;;1.20;;
15132;SDS011;7667;51.232;17.110;2023-12-20T10:55:55;2.70;;;1.10;;
15132;SDS011;7667;51.232;17.110;2023-12-20T10:58:24;3.87;;;1.27;;
15132;SDS011;7667;51.232;17.110;2023-12-20T11:00:55;3.37;;;1.50;;
15132;SDS011;7667;51.232;17.110;2023-12-20T11:03:30;3.30;;;1.10;;
15132;SDS011;7667;51.232;17.110;2023-12-20T11:06:03;3.47;;;1.30;;
15132;SDS011;7667;51.232;17.110;2023-12-20T11:08:41;3.97;;;1.40;;
15132;SDS011;7667;51.232;17.110;2023-12-20T11:11:46;1.77;;;1.03;;
15132;SDS011;7667;51.232;17.110;2023-12-20T11:14:50;2.83;;;1.20;;
15132;SDS011;7667;51.232;17.110;2023-12-20T11:17:19;2.77;;;1.20;;
15132;SDS011;7667;51.232;17.110;2023-12-20T11:22:25;3.00;;;1.10;;
15132;SDS011;7667;51.232;17.110;2023-12-20T11:24:57;1.73;;;1.20;;
15132;SDS011;7667;51.232;17.110;2023-12-20T11:27:30;2.97;;;1.20;;
15132;SDS011;7667;51.232;17.110;2023-12-20T11:29:58;2.47;;;1.20;;
15132;SDS011;7667;51.232;17.110;2023-12-20T11:32:28;2.87;;;1.47;;
15132;SDS011;7667;51.232;17.110;2023-12-20T11:37:38;3.13;;;1.23;;
15132;SDS011;7667;51.232;17.110;2023-12-20T11:40:11;2.40;;;1.37;;
15132;SDS011;7667;51.232;17.110;2023-12-20T11:42:48;2.07;;;1.27;;
15132;SDS011;7667;51.232;17.110;2023-12-20T11:45:18;2.97;;;1.27;;
15132;SDS011;7667;51.232;17.110;2023-12-20T11:47:54;2.80;;;1.60;;
15132;SDS011;7667;51.232;17.110;2023-12-20T11:50:24;1.73;;;1.20;;
15132;SDS011;7667;51.232;17.110;2023-12-20T11:52:53;3.77;;;1.60;;
15132;SDS011;7667;51.232;17.110;2023-12-20T11:55:22;3.80;;;1.40;;
15132;SDS011;7667;51.232;17.110;2023-12-20T11:57:50;3.20;;;1.60;;
15132;SDS011;7667;51.232;17.110;2023-12-20T12:00:19;3.87;;;1.57;;
15132;SDS011;7667;51.232;17.110;2023-12-20T12:02:58;2.33;;;1.30;;
15132;SDS011;7667;51.232;17.110;2023-12-20T12:05:26;2.50;;;1.40;;
15132;SDS011;7667;51.232;17.110;2023-12-20T12:07:54;4.20;;;1.90;;
15132;SDS011;7667;51.232;17.110;2023-12-20T12:10:22;3.83;;;1.40;;
15132;SDS011;7667;51.232;17.110;2023-12-20T12:12:50;3.10;;;1.40;;
15132;SDS011;7667;51.232;17.110;2023-12-20T12:15:19;4.73;;;1.60;;
15132;SDS011;7667;51.232;17.110;2023-12-20T12:17:57;2.80;;;1.40;;
15132;SDS011;7667;51.232;17.110;2023-12-20T12:20:26;2.73;;;1.30;;
15132;SDS011;7667;51.232;17.110;2023-12-20T12:22:57;1.33;;;1.10;;
15132;SDS011;7667;51.232;17.110;2023-12-20T12:25:33;2.57;;;1.33;;
15132;SDS011;7667;51.232;17.110;2023-12-20T12:28:09;2.77;;;1.17;;
15132;SDS011;7667;51.232;17.110;2023-12-20T12:30:38;3.83;;;1.40;;
15132;SDS011;7667;51.232;17.110;2023-12-20T12:33:19;3.97;;;1.40;;
15132;SDS011;7667;51.232;17.110;2023-12-20T12:35:47;3.53;;;1.43;;
15132;SDS011;7667;51.232;17.110;2023-12-20T12:38:15;3.73;;;1.30;;
15132;SDS011;7667;51.232;17.110;2023-12-20T12:40:46;3.60;;;1.50;;
15132;SDS011;7667;51.232;17.110;2023-12-20T12:43:14;2.87;;;1.37;;
15132;SDS011;7667;51.232;17.110;2023-12-20T12:45:42;3.47;;;1.30;;
15132;SDS011;7667;51.232;17.110;2023-12-20T12:48:10;4.40;;;1.50;;
15132;SDS011;7667;51.232;17.110;2023-12-20T12:50:39;1.30;;;1.03;;
15132;SDS011;7667;51.232;17.110;2023-12-20T12:53:07;2.30;;;1.00;;
15132;SDS011;7667;51.232;17.110;2023-12-20T12:55:35;3.37;;;1.57;;
15132;SDS011;7667;51.232;17.110;2023-12-20T12:58:03;2.03;;;1.20;;
15132;SDS011;7667;51.232;17.110;2023-12-20T13:00:31;1.70;;;1.27;;
15132;SDS011;7667;51.232;17.110;2023-12-20T13:02:59;2.60;;;1.30;;
15132;SDS011;7667;51.232;17.110;2023-12-20T13:05:28;1.57;;;1.17;;
15132;SDS011;7667;51.232;17.110;2023-12-20T13:08:02;3.03;;;1.20;;
15132;SDS011;7667;51.232;17.110;2023-12-20T13:10:30;3.60;;;1.33;;
15132;SDS011;7667;51.232;17.110;2023-12-20T13:12:58;2.87;;;1.40;;
15132;SDS011;7667;51.232;17.110;2023-12-20T13:15:26;2.87;;;1.50;;
15132;SDS011;7667;51.232;17.110;2023-12-20T13:17:54;2.53;;;1.50;;
15132;SDS011;7667;51.232;17.110;2023-12-20T13:20:22;3.03;;;1.33;;
15132;SDS011;7667;51.232;17.110;2023-12-20T13:22:50;2.60;;;1.50;;
15132;SDS011;7667;51.232;17.110;2023-12-20T13:25:18;3.53;;;1.40;;
15132;SDS011;7667;51.232;17.110;2023-12-20T13:27:46;3.90;;;1.53;;
15132;SDS011;7667;51.232;17.110;2023-12-20T13:30:15;4.23;;;1.63;;
15132;SDS011;7667;51.232;17.110;2023-12-20T13:32:44;2.27;;;1.40;;
15132;SDS011;7667;51.232;17.110;2023-12-20T13:35:12;5.40;;;1.50;;
15132;SDS011;7667;51.232;17.110;2023-12-20T13:37:40;2.83;;;1.50;;
15132;SDS011;7667;51.232;17.110;2023-12-20T13:40:09;2.53;;;1.30;;
15132;SDS011;7667;51.232;17.110;2023-12-20T13:42:38;3.60;;;1.40;;
15132;SDS011;7667;51.232;17.110;2023-12-20T13:45:07;2.00;;;1.20;;
15132;SDS011;7667;51.232;17.110;2023-12-20T13:47:35;2.70;;;1.30;;
15132;SDS011;7667;51.232;17.110;2023-12-20T13:50:03;3.40;;;1.30;;
15132;SDS011;7667;51.232;17.110;2023-12-20T13:52:32;2.83;;;1.40;;
15132;SDS011;7667;51.232;17.110;2023-12-20T13:55:04;4.80;;;1.23;;
15132;SDS011;7667;51.232;17.110;2023-12-20T13:57:35;2.43;;;1.30;;
15132;SDS011;7667;51.232;17.110;2023-12-20T14:00:21;2.87;;;1.17;;
15132;SDS011;7667;51.232;17.110;2023-12-20T14:02:49;2.40;;;1.37;;
15132;SDS011;7667;51.232;17.110;2023-12-20T14:05:17;3.73;;;1.40;;
15132;SDS011;7667;51.232;17.110;2023-12-20T14:07:47;3.57;;;1.50;;
15132;SDS011;7667;51.232;17.110;2023-12-20T14:10:16;3.80;;;1.27;;
15132;SDS011;7667;51.232;17.110;2023-12-20T14:12:44;3.20;;;1.30;;
15132;SDS011;7667;51.232;17.110;2023-12-20T14:15:12;2.67;;;1.50;;
15132;SDS011;7667;51.232;17.110;2023-12-20T14:17:41;2.90;;;1.50;;
15132;SDS011;7667;51.232;17.110;2023-12-20T14:20:10;3.10;;;1.20;;
15132;SDS011;7667;51.232;17.110;2023-12-20T14:22:41;3.93;;;1.57;;
15132;SDS011;7667;51.232;17.110;2023-12-20T14:25:13;1.60;;;1.10;;
15132;SDS011;7667;51.232;17.110;2023-12-20T14:27:42;3.50;;;1.33;;
15132;SDS011;7667;51.232;17.110;2023-12-20T14:30:14;2.80;;;1.20;;
15132;SDS011;7667;51.232;17.110;2023-12-20T14:32:44;2.80;;;1.30;;
15132;SDS011;7667;51.232;17.110;2023-12-20T14:35:13;3.20;;;1.30;;
15132;SDS011;7667;51.232;17.110;2023-12-20T14:37:41;3.00;;;1.30;;
15132;SDS011;7667;51.232;17.110;2023-12-20T14:40:10;2.90;;;1.30;;
15132;SDS011;7667;51.232;17.110;2023-12-20T14:42:42;2.60;;;1.17;;
15132;SDS011;7667;51.232;17.110;2023-12-20T14:45:11;2.63;;;1.10;;
15132;SDS011;7667;51.232;17.110;2023-12-20T14:47:40;3.50;;;1.47;;
15132;SDS011;7667;51.232;17.110;2023-12-20T14:50:09;3.63;;;1.40;;
15132;SDS011;7667;51.232;17.110;2023-12-20T14:52:44;3.23;;;1.73;;
15132;SDS011;7667;51.232;17.110;2023-12-20T14:55:12;3.63;;;1.70;;
15132;SDS011;7667;51.232;17.110;2023-12-20T14:57:40;3.87;;;1.80;;
15132;SDS011;7667;51.232;17.110;2023-12-20T15:00:08;3.73;;;1.50;;
15132;SDS011;7667;51.232;17.110;2023-12-20T15:02:36;2.37;;;1.50;;
15132;SDS011;7667;51.232;17.110;2023-12-20T15:05:05;4.17;;;1.90;;